Time;durP1;ratioP1;P1;durP2;ratioP2;P2;SDS_P1;SDS_P2;PMS_P1;PMS_P2;Temp;Humidity;BMP_temperature;BMP_pressure;BME280_temperature;BME280_humidity;BME280_pressure;Samples;Min_cycle;Max_cycle;Signal;HPM_P1;HPM_P2
2022/07/09 00:01:02;;;;;;;9.10;5.17;;;20.30;99.90;;;20.77;58.89;102394.00;4866072;28;100233;-52
2022/07/09 00:03:29;;;;;;;6.03;4.70;;;20.20;99.90;;;20.74;59.16;102387.00;4869037;28;97531;-49
2022/07/09 00:05:55;;;;;;;6.17;5.10;;;20.20;99.90;;;20.70;59.08;102387.22;4846576;28;97106;-52
2022/07/09 00:08:21;;;;;;;7.70;5.63;;;20.20;99.90;;;20.69;59.06;102388.19;4871153;28;100379;-52
2022/07/09 00:10:46;;;;;;;6.93;5.17;;;20.20;99.90;;;20.68;59.07;102387.28;4864515;28;97541;-54
2022/07/09 00:13:12;;;;;;;6.47;5.60;;;20.20;99.90;;;20.67;59.25;102384.69;4868951;28;99435;-51
2022/07/09 00:15:38;;;;;;;8.17;5.30;;;20.20;99.90;;;20.69;58.86;102396.22;4856956;28;97023;-51
2022/07/09 00:18:04;;;;;;;9.23;4.80;;;20.20;99.90;;;20.70;58.97;102396.13;4846652;28;98407;-47
2022/07/09 00:20:30;;;;;;;5.40;4.83;;;20.20;99.90;;;20.70;58.86;102389.91;4869109;28;97695;-52
2022/07/09 00:22:56;;;;;;;9.47;4.87;;;20.20;99.90;;;20.68;58.93;102391.78;4867033;28;99620;-53
2022/07/09 00:25:21;;;;;;;6.40;4.67;;;20.20;99.90;;;20.69;58.52;102385.50;4849513;28;99117;-52
2022/07/09 00:27:47;;;;;;;7.03;4.67;;;20.20;99.90;;;20.69;58.40;102383.69;4865055;28;97937;-49
2022/07/09 00:30:13;;;;;;;6.57;5.30;;;20.20;99.90;;;20.69;58.56;102377.47;4868680;28;98956;-51
2022/07/09 00:32:39;;;;;;;7.63;5.37;;;20.20;99.90;;;20.70;58.32;102384.56;4868355;28;100316;-58
2022/07/09 00:35:06;;;;;;;6.27;4.77;;;20.20;99.90;;;20.68;58.26;102375.69;4869152;28;98493;-54
2022/07/09 00:37:32;;;;;;;7.57;5.00;;;20.20;99.90;;;20.68;58.21;102371.19;4869343;28;98157;-51
2022/07/09 00:39:57;;;;;;;7.20;4.70;;;20.10;99.90;;;20.68;58.16;102381.06;4865430;28;97519;-49
2022/07/09 00:42:24;;;;;;;6.27;4.40;;;20.20;99.90;;;20.67;58.41;102380.19;4857852;28;100774;-52
2022/07/09 00:44:51;;;;;;;7.63;4.70;;;20.20;99.90;;;20.66;57.92;102378.44;4864332;28;97667;-53
2022/07/09 00:47:17;;;;;;;6.37;4.67;;;20.10;99.90;;;20.64;58.29;102374.13;4871776;28;99807;-49
2022/07/09 00:49:44;;;;;;;6.90;4.00;;;20.10;99.90;;;20.65;58.01;102370.50;4865766;28;107835;-50
2022/07/09 00:52:14;;;;;;;6.83;4.50;;;20.10;99.90;;;20.62;57.77;102366.16;4847028;28;97684;-55
2022/07/09 00:54:41;;;;;;;7.67;4.83;;;20.10;99.90;;;20.57;58.31;102362.84;4850429;28;98313;-52
2022/07/09 00:57:10;;;;;;;6.20;4.57;;;20.10;99.90;;;20.53;58.39;102371.09;4868663;28;97684;-52
2022/07/09 00:59:38;;;;;;;4.83;4.17;;;19.90;99.90;;;20.57;58.09;102362.84;4857091;28;99307;-54
2022/07/09 01:02:06;;;;;;;9.23;4.30;;;20.00;99.90;;;20.57;57.71;102359.31;4866917;28;101132;-50
2022/07/09 01:04:32;;;;;;;4.87;4.37;;;20.00;99.90;;;20.58;57.93;102358.34;4868988;28;96983;-53
2022/07/09 01:06:58;;;;;;;4.57;4.13;;;20.00;99.90;;;20.58;57.84;102358.34;4866927;28;98267;-49
2022/07/09 01:09:26;;;;;;;6.63;3.80;;;20.00;99.90;;;20.52;58.52;102347.94;4865909;28;100099;-53
2022/07/09 01:11:52;;;;;;;5.53;4.00;;;19.90;99.90;;;20.47;58.64;102351.72;4850841;28;100307;-49
2022/07/09 01:14:18;;;;;;;6.97;4.90;;;19.90;99.90;;;20.43;58.72;102355.50;4869967;28;99084;-49
2022/07/09 01:16:43;;;;;;;4.97;3.93;;;19.90;99.90;;;20.40;58.92;102358.31;4864221;28;97852;-51
2022/07/09 01:19:09;;;;;;;4.87;3.90;;;19.80;99.90;;;20.38;58.94;102356.63;4868180;28;98415;-53
2022/07/09 01:21:35;;;;;;;5.10;4.23;;;19.80;99.90;;;20.34;58.87;102349.69;4869001;28;98320;-54
2022/07/09 01:24:02;;;;;;;6.17;4.23;;;19.80;99.90;;;20.32;59.36;102352.44;4865417;28;98218;-50
2022/07/09 01:26:28;;;;;;;5.03;4.03;;;19.70;99.90;;;20.29;58.92;102352.63;4869910;28;97297;-53
2022/07/09 01:28:54;;;;;;;6.47;4.50;;;19.70;99.90;;;20.30;58.88;102354.34;4853415;28;98411;-54
2022/07/09 01:31:20;;;;;;;5.43;4.03;;;19.70;99.90;;;20.29;58.70;102349.94;4850691;28;100803;-47
2022/07/09 01:33:46;;;;;;;6.63;4.50;;;19.70;99.90;;;20.30;58.79;102349.00;4863917;28;97447;-51
2022/07/09 01:36:12;;;;;;;4.10;3.63;;;19.70;99.90;;;20.29;58.93;102349.06;4865275;28;97002;-50
2022/07/09 01:38:38;;;;;;;5.73;3.90;;;19.70;99.90;;;20.26;58.89;102344.72;4868254;28;97148;-50
2022/07/09 01:41:04;;;;;;;4.13;3.57;;;19.70;99.90;;;20.26;58.78;102342.06;4846460;28;104037;-51
2022/07/09 01:43:33;;;;;;;6.13;4.27;;;19.70;99.90;;;20.27;58.21;102349.16;4868468;28;100741;-53
2022/07/09 01:46:00;;;;;;;4.53;4.13;;;19.70;99.90;;;20.28;58.58;102344.66;4884043;28;102586;-50
2022/07/09 01:48:28;;;;;;;5.03;4.00;;;19.70;99.90;;;20.26;58.56;102342.06;4892522;28;99118;-51
2022/07/09 01:50:54;;;;;;;4.70;4.20;;;19.70;99.90;;;20.26;58.50;102331.34;4890521;28;98267;-48
2022/07/09 01:53:20;;;;;;;5.20;3.90;;;19.70;99.90;;;20.25;58.97;102334.06;4892691;28;97132;-49
2022/07/09 01:55:46;;;;;;;8.77;3.80;;;19.60;99.90;;;20.27;58.55;102335.75;4862781;28;96894;-47
2022/07/09 01:58:13;;;;;;;4.50;3.60;;;19.70;99.90;;;20.26;58.69;102336.69;4891741;28;97588;-47
2022/07/09 02:00:40;;;;;;;5.00;3.53;;;19.60;99.90;;;20.27;58.68;102333.06;4883746;28;97747;-57
2022/07/09 02:03:06;;;;;;;4.60;3.70;;;19.70;99.90;;;20.30;58.23;102338.28;4882583;28;97498;-54
2022/07/09 02:05:32;;;;;;;5.63;3.80;;;19.70;99.90;;;20.31;58.08;102334.66;4892027;28;97343;-50
2022/07/09 02:07:58;;;;;;;6.27;3.73;;;19.70;99.90;;;20.34;58.41;102329.13;4884463;28;97379;-51
2022/07/09 02:10:24;;;;;;;4.60;3.60;;;19.70;99.90;;;20.37;58.18;102328.97;4889937;28;101243;-47
2022/07/09 02:12:49;;;;;;;8.27;4.40;;;19.80;99.90;;;20.38;58.29;102319.09;4884669;28;98858;-51
2022/07/09 02:15:15;;;;;;;5.80;4.03;;;19.80;99.90;;;20.35;58.46;102325.50;4895201;28;97050;-49
2022/07/09 02:17:41;;;;;;;6.83;4.07;;;19.80;99.90;;;20.32;58.78;102320.28;4879023;28;99738;-49
2022/07/09 02:20:08;;;;;;;6.57;4.37;;;19.70;99.90;;;20.30;58.55;102324.00;4885744;28;97026;-52
2022/07/09 02:22:34;;;;;;;5.57;4.53;;;19.70;99.90;;;20.27;58.27;102311.63;4889705;28;98245;-52
2022/07/09 02:25:00;;;;;;;5.63;4.03;;;19.60;99.90;;;20.26;58.51;102314.41;4886401;28;97253;-51
2022/07/09 02:27:26;;;;;;;6.90;4.00;;;19.60;99.90;;;20.28;58.48;102323.22;4880580;28;97502;-50
2022/07/09 02:29:52;;;;;;;4.43;3.53;;;19.60;99.90;;;20.29;58.23;102317.78;4880574;28;97045;-49
2022/07/09 02:32:18;;;;;;;6.53;4.30;;;19.70;99.90;;;20.29;58.72;102314.22;4887134;28;97206;-49
2022/07/09 02:34:44;;;;;;;5.37;4.13;;;19.60;99.90;;;20.29;58.61;102315.09;4862239;28;97712;-47
2022/07/09 02:37:10;;;;;;;6.47;4.40;;;19.70;99.90;;;20.33;58.08;102316.66;4875416;28;98177;-49
2022/07/09 02:39:36;;;;;;;6.33;3.50;;;19.70;99.90;;;20.35;58.36;102309.41;4888834;28;110853;-49
2022/07/09 02:42:02;;;;;;;6.93;3.93;;;19.70;99.90;;;20.38;57.83;102316.44;4883298;28;97370;-50
2022/07/09 02:44:29;;;;;;;6.93;4.53;;;19.70;99.90;;;20.39;58.28;102305.63;4893228;28;96922;-49
2022/07/09 02:46:54;;;;;;;7.33;4.73;;;19.80;99.90;;;20.38;58.18;102309.25;4880125;28;97397;-52
2022/07/09 02:49:23;;;;;;;5.20;4.60;;;19.80;99.90;;;20.38;58.56;102306.56;4890399;28;98056;-50
2022/07/09 02:51:49;;;;;;;6.70;4.77;;;19.80;99.90;;;20.38;58.47;102303.88;4886140;28;97669;-53
2022/07/09 02:54:14;;;;;;;6.77;4.53;;;19.80;99.90;;;20.38;58.43;102308.38;4893366;28;97538;-53
2022/07/09 02:56:40;;;;;;;8.07;4.77;;;19.80;99.90;;;20.35;58.71;102309.41;4887165;28;97530;-51
2022/07/09 02:59:06;;;;;;;7.00;4.27;;;19.80;99.90;;;20.33;58.95;102305.09;4884118;28;96681;-50
2022/07/09 03:01:32;;;;;;;5.30;4.07;;;19.80;99.90;;;20.29;58.75;102301.69;4892812;28;97192;-49
2022/07/09 03:03:57;;;;;;;7.17;4.50;;;19.70;99.90;;;20.28;59.37;102291.94;4888454;28;97240;-50
2022/07/09 03:06:23;;;;;;;5.70;4.30;;;19.70;99.90;;;20.28;59.54;102302.66;4886766;28;101453;-50
2022/07/09 03:08:49;;;;;;;6.57;4.53;;;19.70;99.90;;;20.29;59.02;102293.66;4888853;28;99616;-51
2022/07/09 03:11:15;;;;;;;5.63;5.00;;;19.70;99.90;;;20.30;58.92;102300.75;4885224;28;102440;-48
2022/07/09 03:13:41;;;;;;;8.60;5.13;;;19.70;99.90;;;20.29;58.92;102298.16;4888298;28;97664;-47
2022/07/09 03:16:07;;;;;;;6.60;4.70;;;19.70;99.90;;;20.29;58.83;102298.16;4889106;28;98941;-53
2022/07/09 03:18:33;;;;;;;8.20;4.67;;;19.80;99.90;;;20.29;59.21;102300.84;4892964;28;97583;-49
2022/07/09 03:20:59;;;;;;;5.67;4.70;;;19.80;99.90;;;20.29;59.05;102301.69;4886518;28;97435;-47
2022/07/09 03:23:25;;;;;;;6.93;4.90;;;19.80;99.90;;;20.30;59.73;102300.75;4887743;28;96936;-48
2022/07/09 03:25:51;;;;;;;5.60;4.80;;;19.80;99.90;;;20.30;59.71;102305.25;4885159;28;97742;-47
2022/07/09 03:28:17;;;;;;;5.57;4.93;;;19.80;99.90;;;20.29;59.33;102300.84;4888483;28;97867;-51
2022/07/09 03:30:43;;;;;;;6.77;5.30;;;19.80;99.90;;;20.30;59.49;102298.06;4888741;28;96790;-50
2022/07/09 03:33:09;;;;;;;9.33;5.10;;;19.80;99.90;;;20.30;59.39;102300.75;4891776;28;97195;-53
2022/07/09 03:35:35;;;;;;;7.77;5.17;;;19.80;99.90;;;20.29;59.68;102306.19;4895013;28;97823;-51
2022/07/09 03:38:01;;;;;;;7.70;5.47;;;19.80;99.90;;;20.26;59.66;102299.19;4893419;28;97560;-49
2022/07/09 03:40:26;;;;;;;6.40;4.90;;;19.70;99.90;;;20.26;59.22;102299.19;4887119;28;97470;-50
2022/07/09 03:42:52;;;;;;;8.20;5.53;;;19.70;99.90;;;20.25;59.48;102292.06;4880083;28;97252;-51
2022/07/09 03:45:18;;;;;;;7.93;6.67;;;19.70;99.90;;;20.26;59.50;102293.81;4889265;28;98470;-49
2022/07/09 03:47:44;;;;;;;7.70;6.90;;;19.70;99.90;;;20.26;59.43;102287.59;4892347;28;98164;-50
2022/07/09 03:50:11;;;;;;;9.13;6.07;;;19.70;99.90;;;20.26;59.51;102296.50;4893194;28;98444;-48
2022/07/09 03:52:37;;;;;;;11.13;8.23;;;19.70;99.90;;;20.26;59.77;102288.47;4892167;28;97254;-48
2022/07/09 03:55:05;;;;;;;10.20;7.57;;;19.70;99.90;;;20.23;59.78;102288.59;4892576;28;97332;-48
2022/07/09 03:57:31;;;;;;;7.87;6.30;;;19.70;99.90;;;20.24;59.51;102295.69;4882426;28;98117;-51
2022/07/09 03:59:57;;;;;;;9.37;7.40;;;19.70;99.90;;;20.23;59.69;102293.94;4891654;28;97486;-51
2022/07/09 04:02:23;;;;;;;7.00;6.20;;;19.70;99.90;;;20.24;59.42;102284.97;4894601;28;97207;-49
2022/07/09 04:04:48;;;;;;;10.93;7.70;;;19.70;99.90;;;20.21;59.58;102291.34;4891468;28;98204;-52
2022/07/09 04:07:14;;;;;;;64.67;44.23;;;19.70;99.90;;;20.21;59.70;102298.53;4889170;28;97738;-50
2022/07/09 04:09:40;;;;;;;37.43;25.50;;;19.60;99.90;;;20.19;59.65;102289.69;4883055;28;96865;-52
2022/07/09 04:12:07;;;;;;;19.17;15.23;;;19.60;99.90;;;20.18;59.49;102290.66;4884634;28;97147;-49
2022/07/09 04:14:33;;;;;;;12.87;11.57;;;19.60;99.90;;;20.18;59.63;102301.38;4893940;28;97180;-50
2022/07/09 04:16:59;;;;;;;10.63;9.40;;;19.60;99.90;;;20.16;59.96;102292.53;4876069;28;101510;-52
2022/07/09 04:19:25;;;;;;;9.93;8.27;;;19.60;99.90;;;20.16;59.82;102297.91;4886096;28;97154;-53
2022/07/09 04:21:50;;;;;;;9.57;7.97;;;19.60;99.90;;;20.16;59.90;102298.78;4883498;28;97404;-51
2022/07/09 04:24:16;;;;;;;12.03;9.90;;;19.60;99.90;;;20.17;59.89;102296.94;4883455;28;97020;-52
2022/07/09 04:26:43;;;;;;;11.77;10.03;;;19.60;99.90;;;20.21;59.50;102301.19;4888030;28;97331;-51
2022/07/09 04:29:10;;;;;;;12.50;8.43;;;19.60;99.90;;;20.23;59.34;102304.66;4886823;28;97124;-51
2022/07/09 04:31:36;;;;;;;9.93;7.33;;;19.60;99.90;;;20.23;59.85;102304.66;4889380;28;97313;-52
2022/07/09 04:34:02;;;;;;;9.37;6.33;;;19.70;99.90;;;20.21;59.73;102306.56;4890513;28;97604;-51
2022/07/09 04:36:28;;;;;;;7.70;5.23;;;19.70;99.90;;;20.22;60.06;102308.28;4890019;28;97486;-47
2022/07/09 04:38:55;;;;;;;6.10;4.37;;;19.60;99.90;;;20.24;60.03;102306.41;4882714;28;99546;-51
2022/07/09 04:41:21;;;;;;;7.30;5.00;;;19.70;99.90;;;20.24;59.97;102314.44;4893647;28;97470;-48
2022/07/09 04:43:47;;;;;;;6.07;4.70;;;19.70;99.90;;;20.26;60.09;102312.56;4886576;28;98596;-52
2022/07/09 04:46:13;;;;;;;7.97;4.20;;;19.70;99.90;;;20.26;59.98;102309.91;4890132;28;96986;-54
2022/07/09 04:48:40;;;;;;;10.63;7.13;;;19.70;99.90;;;20.27;60.19;102306.28;4886510;28;97271;-54
2022/07/09 04:51:05;;;;;;;20.20;16.63;;;19.80;99.90;;;20.28;60.54;102312.50;4883188;28;97319;-48
2022/07/09 04:53:31;;;;;;;34.27;27.63;;;19.70;99.90;;;20.30;60.28;102316.84;4885390;28;99816;-49
2022/07/09 04:55:57;;;;;;;38.97;33.77;;;19.80;99.90;;;20.31;60.51;102312.34;4891031;28;108325;-51
2022/07/09 04:58:23;;;;;;;28.40;23.90;;;19.80;99.90;;;20.33;60.47;102311.31;4883673;28;97038;-50
2022/07/09 05:00:49;;;;;;;17.73;15.13;;;19.80;99.90;;;20.34;60.25;102307.69;4892514;28;96882;-53
2022/07/09 05:03:15;;;;;;;19.17;15.40;;;19.80;99.90;;;20.36;60.29;102304.91;4889366;28;97440;-49
2022/07/09 05:05:41;;;;;;;14.97;10.80;;;19.80;99.90;;;20.36;60.83;102303.09;4885867;28;114210;-51
2022/07/09 05:08:07;;;;;;;12.67;10.63;;;19.90;99.90;;;20.36;60.55;102299.56;4888500;28;97138;-51
2022/07/09 05:10:33;;;;;;;14.07;10.13;;;19.90;99.90;;;20.35;60.90;102304.06;4895144;28;97578;-53
2022/07/09 05:12:58;;;;;;;13.10;9.30;;;19.80;99.90;;;20.33;60.48;102297.91;4890499;28;97998;-48
2022/07/09 05:15:24;;;;;;;14.40;9.07;;;19.80;99.90;;;20.35;60.70;102305.88;4892816;28;97691;-51
2022/07/09 05:17:50;;;;;;;13.80;10.13;;;19.80;99.90;;;20.34;61.11;102313.03;4885844;28;97169;-51
2022/07/09 05:20:16;;;;;;;10.93;9.30;;;19.80;99.90;;;20.34;61.06;102302.31;4886685;28;97329;-53
2022/07/09 05:22:42;;;;;;;14.67;11.10;;;19.80;99.90;;;20.35;61.04;102298.69;4890583;28;97961;-51
2022/07/09 05:25:08;;;;;;;16.20;12.03;;;19.80;99.90;;;20.48;58.76;102301.66;4892150;28;97465;-50
2022/07/09 05:27:45;;;;;;;15.23;13.27;;;19.90;99.90;;;20.65;57.03;102300.78;4886957;28;96995;-49
2022/07/09 05:30:15;;;;;;;15.70;12.87;;;20.20;99.90;;;20.69;59.37;102302.38;4885847;28;97548;-51
2022/07/09 05:32:42;;;;;;;18.23;12.70;;;20.30;99.90;;;20.72;60.06;102303.06;4894524;28;97992;-50
2022/07/09 05:35:08;;;;;;;14.77;12.60;;;20.30;99.90;;;20.81;56.84;102307.06;4893071;28;97521;-49
2022/07/09 05:37:42;;;;;;;20.23;14.13;;;20.40;99.90;;;20.96;56.72;102311.63;4890567;28;102473;-51
2022/07/09 05:40:09;;;;;;;16.40;13.17;;;20.50;99.90;;;20.99;58.56;102298.06;4884822;28;97615;-48
2022/07/09 05:42:34;;;;;;;13.83;12.43;;;20.60;99.90;;;21.00;59.10;102297.13;4888595;28;97780;-48
2022/07/09 05:45:00;;;;;;;17.60;13.70;;;20.60;99.90;;;20.98;59.30;102293.66;4886565;28;97374;-53
2022/07/09 05:47:26;;;;;;;16.70;15.00;;;20.50;99.90;;;21.08;56.19;102286.81;4892093;28;96758;-49
2022/07/09 05:49:52;;;;;;;21.40;15.70;;;20.70;99.90;;;21.20;55.32;102293.34;4884618;28;97423;-49
2022/07/09 05:52:18;;;;;;;19.03;15.80;;;20.90;99.90;;;21.25;56.33;102296.66;4894156;28;97529;-51
2022/07/09 05:54:44;;;;;;;16.63;14.17;;;20.90;99.90;;;21.31;55.47;102301.72;4886253;28;97131;-51
2022/07/09 05:57:10;;;;;;;19.30;15.70;;;21.00;99.90;;;21.35;57.20;102307.78;4895504;28;97833;-48
2022/07/09 05:59:36;;;;;;;17.27;13.23;;;21.00;99.90;;;21.46;54.55;102320.63;4894732;28;96980;-51
2022/07/09 06:02:02;;;;;;;17.40;15.17;;;21.20;99.90;;;21.51;56.16;102327.44;4882175;28;98947;-47
2022/07/09 06:04:29;;;;;;;19.23;15.50;;;21.20;99.90;;;21.53;56.80;102322.00;4894500;28;98032;-49
2022/07/09 06:06:54;;;;;;;20.43;17.43;;;21.20;99.90;;;21.55;56.07;102326.31;4886390;28;100798;-49
2022/07/09 06:09:20;;;;;;;22.40;18.60;;;21.20;99.90;;;21.55;57.44;102318.28;4884867;28;98019;-52
2022/07/09 06:11:46;;;;;;;20.07;17.57;;;21.30;99.90;;;21.58;56.14;102320.81;4883150;28;96994;-49
2022/07/09 06:14:12;;;;;;;21.70;14.93;;;21.30;99.90;;;21.64;54.46;102316.91;4880843;28;110517;-46
2022/07/09 06:16:38;;;;;;;16.63;13.70;;;21.30;99.90;;;21.65;54.11;102316.81;4881186;28;97671;-49
2022/07/09 06:19:04;;;;;;;21.53;17.07;;;21.40;99.90;;;21.63;54.85;102329.47;4883706;28;97618;-49
2022/07/09 06:21:29;;;;;;;20.80;18.57;;;21.30;99.90;;;21.67;57.44;102317.59;4889562;28;98061;-47
2022/07/09 06:23:55;;;;;;;23.60;19.30;;;21.40;99.90;;;21.66;57.69;102307.78;4884190;28;102916;-52
2022/07/09 06:26:21;;;;;;;21.53;19.23;;;21.40;99.90;;;21.66;58.24;102302.44;4884326;28;97421;-51
2022/07/09 06:28:47;;;;;;;14.67;11.50;;;21.40;99.90;;;21.65;54.88;102295.31;4887058;28;97622;-48
2022/07/09 06:31:12;;;;;;;21.60;19.47;;;21.30;99.90;;;21.74;55.93;102303.84;4889826;28;97472;-47
2022/07/09 06:33:38;;;;;;;23.00;20.57;;;21.50;99.90;;;21.71;58.58;102299.50;4891720;28;105395;-50
2022/07/09 06:36:04;;;;;;;18.77;16.70;;;21.50;99.90;;;21.69;56.53;102296.88;4887817;28;97084;-51
2022/07/09 06:38:30;;;;;;;16.17;14.53;;;21.40;99.90;;;21.71;54.16;102301.31;4884061;28;97002;-49
2022/07/09 06:40:56;;;;;;;16.53;14.70;;;21.40;99.90;;;21.79;54.75;102296.38;4882980;28;96883;-50
2022/07/09 06:43:23;;;;;;;18.80;13.67;;;21.50;99.90;;;21.85;53.46;102301.41;4882750;28;97583;-52
2022/07/09 06:45:49;;;;;;;17.60;13.90;;;21.70;99.90;;;21.91;53.35;102295.66;4884412;28;97155;-51
2022/07/09 06:48:14;;;;;;;16.63;13.37;;;21.80;99.90;;;21.94;54.76;102296.34;4885906;28;98410;-51
2022/07/09 06:50:40;;;;;;;15.97;13.53;;;21.80;99.90;;;22.00;56.59;102305.91;4889854;28;108586;-53
2022/07/09 06:53:06;;;;;;;13.20;9.70;;;21.80;99.90;;;21.98;53.70;102297.03;4898587;28;98666;-48
2022/07/09 06:55:32;;;;;;;12.03;10.73;;;21.80;99.90;;;22.03;53.85;102303.03;4888158;28;98860;-51
2022/07/09 06:57:59;;;;;;;12.33;9.10;;;21.90;99.90;;;22.08;53.10;102303.66;4890787;28;97460;-49
2022/07/09 07:00:25;;;;;;;11.33;9.87;;;21.90;99.90;;;22.12;52.83;102299.81;4888113;28;97246;-51
2022/07/09 07:02:51;;;;;;;10.13;8.20;;;22.00;99.90;;;22.17;52.88;102303.13;4881714;28;97115;-51
2022/07/09 07:05:17;;;;;;;9.70;8.70;;;22.00;99.90;;;22.20;52.89;102294.88;4890297;28;98109;-49
2022/07/09 07:07:43;;;;;;;8.50;6.70;;;22.10;99.90;;;22.22;52.58;102298.34;4893852;28;97537;-49
2022/07/09 07:10:09;;;;;;;10.50;9.10;;;22.10;99.90;;;22.27;54.26;102301.59;4894900;28;103638;-53
2022/07/09 07:12:35;;;;;;;11.80;8.40;;;22.20;99.90;;;22.22;55.57;102306.41;4896332;28;98377;-51
2022/07/09 07:15:01;;;;;;;10.73;8.00;;;22.10;99.90;;;22.19;53.00;102309.28;4892019;28;97188;-53
2022/07/09 07:17:27;;;;;;;10.23;7.93;;;22.10;99.90;;;22.22;52.81;102311.78;4893314;28;97056;-47
2022/07/09 07:19:52;;;;;;;9.57;8.67;;;22.10;99.90;;;22.27;53.40;102306.97;4890617;28;98508;-50
2022/07/09 07:22:18;;;;;;;11.03;8.77;;;22.20;99.90;;;22.29;53.88;102311.44;4893308;28;97068;-48
2022/07/09 07:24:44;;;;;;;8.17;6.70;;;22.10;99.90;;;22.26;53.18;102307.94;4892582;28;105879;-49
2022/07/09 07:27:10;;;;;;;12.30;9.77;;;22.10;99.90;;;22.27;52.67;102304.28;4894523;28;96746;-48
2022/07/09 07:29:36;;;;;;;12.13;9.87;;;22.10;99.90;;;22.29;53.68;102303.38;4893098;28;99168;-46
2022/07/09 07:32:02;;;;;;;11.80;9.60;;;22.10;99.90;;;22.25;55.54;102306.22;4885180;28;97430;-51
2022/07/09 07:34:27;;;;;;;8.90;6.17;;;22.00;99.90;;;22.24;53.86;102304.47;4913027;28;97443;-52
2022/07/09 07:36:54;;;;;;;12.30;9.43;;;22.00;99.90;;;22.17;55.98;102303.13;4907108;28;97380;-47
2022/07/09 07:39:21;;;;;;;10.80;8.53;;;21.90;99.90;;;22.15;55.66;102307.72;4896075;28;97524;-51
2022/07/09 07:41:48;;;;;;;4.87;3.50;;;21.90;99.90;;;22.14;53.13;102297.94;4888753;28;97097;-54
2022/07/09 07:44:14;;;;;;;6.77;5.13;;;21.90;99.90;;;22.17;53.16;102302.25;4896582;28;97523;-51
2022/07/09 07:46:39;;;;;;;4.37;3.30;;;21.90;99.90;;;22.19;52.77;102301.22;4894941;28;97682;-58
2022/07/09 07:49:05;;;;;;;3.33;2.73;;;22.00;99.90;;;22.24;52.38;102301.78;4886213;28;118548;-49
2022/07/09 07:51:31;;;;;;;3.37;3.07;;;22.10;99.90;;;22.30;52.27;102297.03;4896994;28;98067;-52
2022/07/09 07:53:57;;;;;;;8.17;6.90;;;22.20;99.90;;;22.36;54.10;102296.66;4887532;28;98570;-51
2022/07/09 07:56:22;;;;;;;11.13;7.87;;;22.30;99.90;;;22.38;52.17;102289.34;4883188;28;97708;-53
2022/07/09 07:58:48;;;;;;;7.43;6.63;;;22.30;99.90;;;22.39;52.43;102296.47;4887216;28;105967;-53
2022/07/09 08:01:14;;;;;;;8.03;6.60;;;22.30;99.90;;;22.42;53.80;102296.28;4892874;28;99418;-51
2022/07/09 08:03:40;;;;;;;6.03;4.40;;;22.30;99.90;;;22.43;52.12;102300.72;4890111;28;97293;-55
2022/07/09 08:06:07;;;;;;;7.97;6.30;;;22.30;99.90;;;22.41;52.24;102310.69;4894783;28;98903;-49
2022/07/09 08:08:33;;;;;;;6.60;5.20;;;22.30;99.90;;;22.44;52.60;102305.13;4893523;28;97084;-47
2022/07/09 08:11:00;;;;;;;6.53;4.77;;;22.40;99.90;;;22.43;52.42;102314.16;4890116;28;97180;-51
2022/07/09 08:13:28;;;;;;;6.73;5.93;;;22.30;99.90;;;22.44;52.44;102305.13;4888833;28;97239;-49
2022/07/09 08:15:54;;;;;;;6.67;5.67;;;22.30;99.90;;;22.46;52.98;102303.22;4887396;28;97571;-51
2022/07/09 08:18:20;;;;;;;3.57;3.07;;;22.30;99.90;;;22.45;51.60;102299.66;4901215;28;98001;-52
2022/07/09 08:20:47;;;;;;;3.97;3.57;;;22.40;99.90;;;22.49;52.02;102297.66;4888740;28;101937;-49
2022/07/09 08:23:13;;;;;;;5.13;3.47;;;22.40;99.90;;;22.52;52.24;102289.41;4889771;28;97503;-53
2022/07/09 08:25:39;;;;;;;5.00;3.03;;;22.40;99.90;;;22.55;51.42;102297.28;4891600;28;102067;-50
2022/07/09 08:28:04;;;;;;;7.90;4.50;;;22.40;99.90;;;22.54;53.28;102291.03;4887415;28;114399;-52
2022/07/09 08:30:30;;;;;;;4.23;3.83;;;22.50;99.90;;;22.50;51.75;102299.38;4889828;28;100662;-52
2022/07/09 08:32:56;;;;;;;4.20;3.37;;;22.50;99.90;;;22.53;51.47;102294.69;4885175;28;97396;-49
2022/07/09 08:35:22;;;;;;;8.23;4.13;;;22.50;99.90;;;22.52;51.96;102281.34;4897319;28;96905;-53
2022/07/09 08:37:48;;;;;;;7.60;4.23;;;22.50;99.90;;;22.55;51.56;102286.50;4890065;28;98192;-53
2022/07/09 08:40:14;;;;;;;6.40;3.90;;;22.50;99.90;;;22.57;51.69;102281.94;4895391;28;111135;-50
2022/07/09 08:42:39;;;;;;;6.53;4.13;;;22.50;99.90;;;22.61;52.41;102290.69;4909733;28;97720;-57
2022/07/09 08:45:12;;;;;;;6.13;3.77;;;22.50;99.90;;;22.62;51.61;102285.19;4892005;28;97484;-49
2022/07/09 08:47:40;;;;;;;7.33;4.23;;;22.50;99.90;;;22.61;51.58;102291.53;4892156;28;97630;-49
2022/07/09 08:50:06;;;;;;;6.67;4.57;;;22.60;99.90;;;22.54;51.29;102291.03;4892528;28;99970;-51
2022/07/09 08:52:34;;;;;;;4.37;3.27;;;22.50;99.90;;;22.60;51.47;102280.88;4896130;28;97200;-47
2022/07/09 08:55:01;;;;;;;4.07;3.00;;;22.50;99.90;;;22.63;51.12;102278.00;4888619;28;98411;-52
2022/07/09 08:57:27;;;;;;;3.77;2.77;;;22.60;99.90;;;22.64;51.05;102280.59;4890675;28;97602;-52
2022/07/09 08:59:53;;;;;;;4.90;2.83;;;22.60;99.90;;;22.67;51.19;102274.16;4905255;28;97630;-50
2022/07/09 09:02:20;;;;;;;4.07;2.13;;;22.60;99.90;;;22.70;50.96;102265.88;4895521;28;96918;-53
2022/07/09 09:04:46;;;;;;;4.03;1.73;;;22.70;99.90;;;22.65;49.25;102260.81;4889482;28;97528;-51
2022/07/09 09:07:17;;;;;;;2.77;1.70;;;22.60;99.90;;;22.69;49.43;102267.72;4894902;28;109484;-50
2022/07/09 09:09:44;;;;;;;4.50;2.57;;;22.60;99.90;;;22.73;50.24;102260.34;4881724;28;96945;-51
2022/07/09 09:12:12;;;;;;;3.20;2.23;;;22.60;99.90;;;22.69;50.32;102246.19;4874784;28;98888;-52
2022/07/09 09:14:38;;;;;;;4.07;2.63;;;22.70;99.90;;;22.68;50.28;102249.84;4870850;28;97020;-54
2022/07/09 09:17:11;;;;;;;2.50;2.20;;;22.70;99.90;;;22.72;50.43;102235.28;4867731;28;97216;-49
2022/07/09 09:19:39;;;;;;;3.17;2.23;;;22.70;99.90;;;22.72;49.96;102240.66;4867942;28;97614;-49
2022/07/09 09:22:06;;;;;;;4.20;2.70;;;22.70;99.90;;;22.73;50.40;102237.00;4865804;28;97863;-53
2022/07/09 09:24:34;;;;;;;5.20;2.80;;;22.70;99.90;;;22.71;50.22;102228.16;4871922;28;97512;-50
2022/07/09 09:27:01;;;;;;;2.70;2.23;;;22.70;99.90;;;22.73;50.41;102231.63;4871389;28;99667;-49
2022/07/09 09:29:27;;;;;;;4.50;2.70;;;22.70;99.90;;;22.71;50.32;102220.09;4871812;28;98958;-53
2022/07/09 09:31:55;;;;;;;3.10;2.07;;;22.70;99.90;;;22.63;50.01;102219.69;4868802;28;97600;-49
2022/07/09 09:34:22;;;;;;;3.03;2.00;;;22.70;99.90;;;22.64;50.14;102220.56;4877249;28;100283;-55
2022/07/09 09:36:51;;;;;;;2.40;1.63;;;22.60;99.90;;;22.64;50.39;102216.03;4868996;28;100454;-52
2022/07/09 09:39:19;;;;;;;2.37;1.47;;;22.70;99.90;;;22.68;50.05;102219.41;4866181;28;99159;-53
2022/07/09 09:42:03;;;;;;;2.03;1.53;;;22.70;99.90;;;22.73;49.04;102222.69;4871590;28;97714;-46
2022/07/09 09:44:37;;;;;;;2.97;1.53;;;22.70;99.90;;;22.66;49.64;102213.25;4867640;28;97011;-53
2022/07/09 09:47:04;;;;;;;3.03;1.23;;;22.70;99.90;;;22.64;48.82;102210.66;4875107;28;98437;-52
2022/07/09 09:49:30;;;;;;;1.73;1.20;;;22.70;99.90;;;22.67;49.64;102210.47;4871840;28;99601;-47
2022/07/09 09:52:10;;;;;;;2.70;1.37;;;22.70;99.90;;;22.78;49.62;102213.34;4874934;28;99183;-51
2022/07/09 09:54:39;;;;;;;2.10;1.30;;;22.70;99.90;;;22.80;49.14;102211.44;4870183;28;98225;-50
2022/07/09 09:57:10;;;;;;;4.87;2.00;;;22.80;99.90;;;22.78;49.83;102212.50;4865743;28;97842;-54
2022/07/09 09:59:41;;;;;;;3.47;2.20;;;22.80;99.90;;;22.85;50.19;102214.72;4869127;28;98594;-57
2022/07/09 10:02:10;;;;;;;1.70;1.60;;;22.80;99.90;;;22.89;50.27;102211.88;4875126;28;97660;-52
2022/07/09 10:04:41;;;;;;;4.83;1.20;;;22.90;99.90;;;22.89;50.05;102211.88;4871127;28;98237;-55